createdAt,value
2017-12-21T00:01:01.593Z,3.50
2017-12-21T00:03:29.621Z,3.50
2017-12-21T00:05:58.396Z,3.50
2017-12-21T00:08:26.396Z,3.50
2017-12-21T00:10:54.400Z,3.60
2017-12-21T00:13:22.452Z,3.60
2017-12-21T00:15:50.464Z,3.50
2017-12-21T00:18:18.460Z,3.60
2017-12-21T00:20:46.460Z,3.60
2017-12-21T00:23:14.480Z,3.60
2017-12-21T00:25:42.564Z,3.60
2017-12-21T00:28:10.712Z,3.60
2017-12-21T00:30:38.810Z,3.50
2017-12-21T00:33:06.805Z,3.60
2017-12-21T00:35:35.671Z,3.60
2017-12-21T00:38:03.668Z,3.60
2017-12-21T00:40:31.684Z,3.70
2017-12-21T00:42:59.680Z,3.70
2017-12-21T00:45:27.668Z,3.60
2017-12-21T00:47:56.445Z,3.60
2017-12-21T00:50:24.463Z,3.60
2017-12-21T00:52:53.254Z,3.70
2017-12-21T00:55:21.228Z,3.60
2017-12-21T00:57:49.221Z,3.60
2017-12-21T01:00:18.048Z,3.70
2017-12-21T01:02:46.014Z,3.60
2017-12-21T01:05:14.916Z,3.90
2017-12-21T01:07:43.671Z,3.70
2017-12-21T01:10:11.665Z,3.60
2017-12-21T01:12:39.676Z,3.70
2017-12-21T01:15:08.428Z,3.70
2017-12-21T01:17:36.480Z,3.70
2017-12-21T01:20:04.480Z,3.70
2017-12-21T01:22:33.269Z,3.70
2017-12-21T01:25:01.275Z,3.70
2017-12-21T01:27:29.260Z,3.70
2017-12-21T01:29:57.359Z,3.70
2017-12-21T01:32:25.347Z,3.70
2017-12-21T01:34:53.336Z,3.80
2017-12-21T01:37:21.348Z,3.80
2017-12-21T01:39:50.552Z,3.80
2017-12-21T01:42:19.339Z,3.80
2017-12-21T01:44:47.336Z,3.80
2017-12-21T01:47:16.108Z,3.80
2017-12-21T01:49:44.150Z,3.80
2017-12-21T01:52:12.884Z,3.80
2017-12-21T01:54:40.896Z,3.80
2017-12-21T01:57:09.712Z,3.80
2017-12-21T01:59:38.296Z,3.80
2017-12-21T02:02:06.392Z,3.80
2017-12-21T02:04:34.425Z,3.80
2017-12-21T02:07:02.969Z,3.80
2017-12-21T02:09:31.769Z,3.80
2017-12-21T02:12:00.581Z,3.90
2017-12-21T02:14:29.399Z,3.90
2017-12-21T02:16:57.433Z,3.80
2017-12-21T02:19:25.493Z,3.90
2017-12-21T02:21:53.529Z,3.90
2017-12-21T02:24:23.201Z,3.90
2017-12-21T02:26:52.064Z,3.90
2017-12-21T02:29:20.853Z,3.80
2017-12-21T02:31:49.664Z,3.80
2017-12-21T02:34:18.467Z,3.80
2017-12-21T02:36:47.312Z,3.80
2017-12-21T02:39:15.356Z,3.80
2017-12-21T02:41:43.411Z,3.90
2017-12-21T02:44:11.485Z,3.90
2017-12-21T02:46:39.526Z,3.90
2017-12-21T02:49:07.594Z,3.90
2017-12-21T02:51:35.632Z,3.90
2017-12-21T02:54:04.086Z,3.80
2017-12-21T02:56:32.129Z,3.90
2017-12-21T02:59:00.164Z,4.00
2017-12-21T03:01:28.209Z,3.90
2017-12-21T03:03:57.088Z,3.90
2017-12-21T03:06:26.697Z,3.80
2017-12-21T03:08:54.733Z,3.80
2017-12-21T03:11:22.771Z,3.90
2017-12-21T03:13:50.817Z,3.90
2017-12-21T03:16:18.897Z,3.90
2017-12-21T03:18:46.949Z,3.90
2017-12-21T03:21:15.749Z,3.90
2017-12-21T03:23:44.592Z,3.90
2017-12-21T03:26:12.633Z,3.80
2017-12-21T03:28:41.452Z,3.90
2017-12-21T03:31:09.529Z,3.90
2017-12-21T03:33:38.324Z,3.90
2017-12-21T03:36:07.129Z,3.90
2017-12-21T03:38:35.951Z,3.90
2017-12-21T03:41:03.989Z,3.90
2017-12-21T03:43:32.038Z,3.80
2017-12-21T03:46:00.065Z,3.80
2017-12-21T03:48:28.123Z,3.90
2017-12-21T03:50:56.165Z,3.90
2017-12-21T03:53:24.216Z,3.90
2017-12-21T03:55:52.246Z,3.90
2017-12-21T03:58:20.312Z,3.90
2017-12-21T04:00:48.361Z,3.90
2017-12-21T04:03:16.389Z,3.90
2017-12-21T04:05:44.446Z,3.90
2017-12-21T04:08:13.249Z,3.90
2017-12-21T04:10:42.094Z,3.90
2017-12-21T04:13:10.136Z,3.80
2017-12-21T04:15:38.935Z,3.90
2017-12-21T04:18:07.749Z,3.90
2017-12-21T04:20:35.780Z,3.90
2017-12-21T04:23:04.042Z,3.90
2017-12-21T04:25:32.877Z,3.90
2017-12-21T04:28:00.905Z,3.90
2017-12-21T04:30:30.134Z,4.00
2017-12-21T04:32:58.900Z,3.90
2017-12-21T04:35:27.700Z,4.00
2017-12-21T04:37:55.749Z,3.90
2017-12-21T04:40:23.789Z,4.00
2017-12-21T04:42:51.856Z,4.00
2017-12-21T04:45:20.652Z,4.00
2017-12-21T04:47:49.452Z,4.00
2017-12-21T04:50:18.265Z,4.00
2017-12-21T04:52:47.057Z,4.00
2017-12-21T04:55:15.896Z,4.00
2017-12-21T04:57:43.925Z,3.90
2017-12-21T05:00:11.966Z,4.00
2017-12-21T05:02:40.018Z,4.00
2017-12-21T05:05:08.813Z,4.00
2017-12-21T05:07:37.768Z,4.00
2017-12-21T05:10:05.800Z,4.00
2017-12-21T05:12:34.660Z,4.00
2017-12-21T05:15:02.689Z,3.90
2017-12-21T05:17:32.148Z,4.00
2017-12-21T05:20:00.197Z,4.00
2017-12-21T05:22:28.997Z,4.10
2017-12-21T05:24:57.801Z,4.10
2017-12-21T05:27:26.621Z,4.10
2017-12-21T05:29:54.692Z,4.10
2017-12-21T05:32:23.484Z,4.10
2017-12-21T05:34:52.276Z,4.10
2017-12-21T05:37:21.096Z,4.10
2017-12-21T05:39:49.884Z,4.10
2017-12-21T05:42:18.709Z,4.10
2017-12-21T05:44:46.741Z,4.10
2017-12-21T05:47:14.799Z,4.10
2017-12-21T05:49:42.831Z,4.20
2017-12-21T05:52:10.888Z,4.20
2017-12-21T05:54:38.932Z,4.20
2017-12-21T05:57:06.981Z,4.20
2017-12-21T05:59:35.776Z,4.20
2017-12-21T06:02:04.598Z,4.20
2017-12-21T06:04:32.637Z,4.20
2017-12-21T06:07:00.705Z,4.30
2017-12-21T06:09:29.445Z,4.20
2017-12-21T06:11:57.477Z,4.30
2017-12-21T06:14:25.524Z,4.30
2017-12-21T06:16:54.324Z,4.30
2017-12-21T06:19:23.157Z,4.30
2017-12-21T06:21:51.184Z,4.30
2017-12-21T06:24:19.217Z,4.30
2017-12-21T06:26:47.319Z,4.30
2017-12-21T06:29:15.341Z,4.30
2017-12-21T06:31:43.377Z,4.30
2017-12-21T06:34:11.447Z,4.30
2017-12-21T06:36:39.472Z,4.30
2017-12-21T06:39:08.478Z,4.30
2017-12-21T06:41:36.508Z,4.30
2017-12-21T06:44:04.777Z,4.30
2017-12-21T06:46:32.813Z,4.30
2017-12-21T06:49:00.850Z,4.30
2017-12-21T06:51:28.897Z,4.30
2017-12-21T06:53:56.954Z,4.30
2017-12-21T06:56:25.757Z,4.40
2017-12-21T06:58:53.844Z,4.30
2017-12-21T07:01:21.889Z,4.40
2017-12-21T07:03:49.917Z,4.40
2017-12-21T07:06:17.985Z,4.50
2017-12-21T07:08:46.777Z,4.40
2017-12-21T07:11:14.866Z,4.40
2017-12-21T07:13:43.778Z,4.40
2017-12-21T07:16:12.586Z,4.50
2017-12-21T07:18:40.606Z,4.40
2017-12-21T07:21:08.655Z,4.50
2017-12-21T07:23:36.677Z,4.50
2017-12-21T07:26:05.122Z,4.50
2017-12-21T07:28:33.917Z,4.50
2017-12-21T07:31:02.716Z,4.50
2017-12-21T07:33:31.521Z,4.50
2017-12-21T07:36:00.338Z,4.50
2017-12-21T07:38:28.408Z,4.50
2017-12-21T07:40:57.198Z,4.60
2017-12-21T07:43:25.984Z,4.60
2017-12-21T07:45:54.071Z,4.50
2017-12-21T07:48:22.088Z,4.50
2017-12-21T07:50:50.116Z,4.50
2017-12-21T07:53:18.234Z,4.60
2017-12-21T07:55:47.097Z,4.60
2017-12-21T07:58:15.122Z,4.50
2017-12-21T08:00:44.058Z,4.60
2017-12-21T08:03:12.078Z,4.60
2017-12-21T08:05:40.122Z,4.60
2017-12-21T08:08:08.157Z,4.60
2017-12-21T08:10:36.210Z,4.70
2017-12-21T08:13:04.236Z,4.70
2017-12-21T08:15:32.393Z,4.70
2017-12-21T08:18:01.198Z,4.70
2017-12-21T08:20:29.225Z,4.60
2017-12-21T08:22:58.033Z,4.70
2017-12-21T08:25:26.072Z,4.60
2017-12-21T08:27:54.933Z,4.80
2017-12-21T08:30:22.956Z,4.70
2017-12-21T08:32:50.989Z,4.80
2017-12-21T08:35:19.051Z,4.80
2017-12-21T08:37:47.093Z,4.70
2017-12-21T08:40:15.128Z,4.70
2017-12-21T08:42:43.948Z,4.80
2017-12-21T08:45:11.993Z,4.70
2017-12-21T08:47:40.180Z,4.80
2017-12-21T08:50:08.213Z,4.80
2017-12-21T08:52:36.293Z,4.80
2017-12-21T08:55:05.076Z,5.00
2017-12-21T08:57:33.146Z,5.00
2017-12-21T09:00:01.946Z,5.00
2017-12-21T09:02:30.021Z,5.00
2017-12-21T09:04:58.039Z,5.00
2017-12-21T09:07:26.073Z,5.00
2017-12-21T09:09:54.129Z,5.00
2017-12-21T09:12:22.153Z,5.10
2017-12-21T09:14:50.229Z,5.00
2017-12-21T09:17:18.273Z,4.90
2017-12-21T09:19:46.296Z,5.00
2017-12-21T09:22:14.345Z,5.00
2017-12-21T09:24:42.378Z,5.00
2017-12-21T09:27:11.269Z,5.00
2017-12-21T09:29:39.304Z,5.00
2017-12-21T09:32:07.358Z,5.10
2017-12-21T09:34:36.143Z,5.10
2017-12-21T09:37:04.193Z,5.10
2017-12-21T09:39:32.237Z,5.10
2017-12-21T09:42:01.024Z,5.10
2017-12-21T09:44:29.842Z,5.10
2017-12-21T09:46:58.632Z,5.10
2017-12-21T09:49:27.461Z,5.10
2017-12-21T09:51:55.491Z,5.00
2017-12-21T09:54:23.517Z,5.20
2017-12-21T09:56:51.568Z,5.20
2017-12-21T09:59:19.593Z,5.20
2017-12-21T10:01:47.653Z,5.20
2017-12-21T10:04:16.447Z,5.20
2017-12-21T10:06:44.497Z,5.10
2017-12-21T10:09:12.529Z,5.30
2017-12-21T10:11:41.656Z,5.30
2017-12-21T10:14:10.388Z,5.20
2017-12-21T10:16:38.422Z,5.20
2017-12-21T10:19:07.234Z,5.30
2017-12-21T10:21:35.265Z,5.20
2017-12-21T10:24:03.341Z,5.30
2017-12-21T10:26:31.387Z,5.40
2017-12-21T10:28:59.445Z,5.40
2017-12-21T10:31:28.293Z,5.40
2017-12-21T10:33:56.317Z,5.30
2017-12-21T10:36:24.344Z,5.40
2017-12-21T10:38:52.392Z,5.40
2017-12-21T10:41:21.192Z,5.40
2017-12-21T10:43:49.242Z,5.40
2017-12-21T10:46:17.265Z,5.50
2017-12-21T10:48:46.112Z,5.40
2017-12-21T10:51:14.142Z,5.40
2017-12-21T10:53:42.189Z,5.50
2017-12-21T10:56:10.265Z,5.40
2017-12-21T10:58:38.288Z,5.40
2017-12-21T11:01:06.345Z,5.40
2017-12-21T11:03:34.428Z,5.40
2017-12-21T11:06:02.486Z,5.40
2017-12-21T11:08:30.517Z,5.50
2017-12-21T11:10:58.629Z,5.50
2017-12-21T11:13:27.425Z,5.40
2017-12-21T11:15:56.376Z,5.50
2017-12-21T11:18:24.413Z,5.40
2017-12-21T11:20:53.212Z,5.50
2017-12-21T11:23:22.165Z,5.50
2017-12-21T11:25:50.199Z,5.50
2017-12-21T11:28:18.996Z,5.60
2017-12-21T11:30:47.809Z,5.70
2017-12-21T11:33:16.600Z,5.60
2017-12-21T11:35:45.420Z,5.70
2017-12-21T11:38:13.481Z,5.60
2017-12-21T11:40:41.557Z,5.60
2017-12-21T11:43:09.598Z,5.60
2017-12-21T11:45:37.631Z,5.70
2017-12-21T11:48:05.709Z,5.70
2017-12-21T11:50:33.737Z,5.70
2017-12-21T11:53:01.931Z,5.70
2017-12-21T11:55:29.978Z,5.70
2017-12-21T11:57:58.007Z,5.70
2017-12-21T12:00:26.052Z,5.80
2017-12-21T12:02:54.846Z,5.60
2017-12-21T12:05:23.642Z,5.70
2017-12-21T12:07:51.691Z,5.60
2017-12-21T12:10:19.777Z,5.60
2017-12-21T12:12:47.829Z,5.70
2017-12-21T12:15:15.865Z,5.70
2017-12-21T12:17:43.931Z,5.70
2017-12-21T12:20:11.953Z,5.80
2017-12-21T12:22:40.783Z,5.70
2017-12-21T12:25:08.816Z,5.70
2017-12-21T12:27:36.880Z,5.60
2017-12-21T12:30:04.942Z,5.70
2017-12-21T12:32:32.985Z,5.70
2017-12-21T12:35:02.574Z,5.70
2017-12-21T12:37:30.701Z,5.60
2017-12-21T12:39:59.537Z,5.60
2017-12-21T12:42:27.567Z,5.60
2017-12-21T12:44:55.621Z,5.60
2017-12-21T12:47:23.717Z,5.60
2017-12-21T12:49:51.740Z,5.70
2017-12-21T12:52:20.593Z,5.60
2017-12-21T12:54:48.615Z,5.60
2017-12-21T12:57:17.412Z,5.70
2017-12-21T12:59:45.474Z,5.60
2017-12-21T13:02:13.526Z,5.70
2017-12-21T13:04:41.584Z,5.80
2017-12-21T13:07:10.943Z,5.80
2017-12-21T13:09:38.987Z,5.70
2017-12-21T13:12:07.778Z,5.70
2017-12-21T13:14:36.587Z,5.70
2017-12-21T13:17:05.377Z,5.70
2017-12-21T13:19:34.188Z,5.70
2017-12-21T13:22:02.221Z,5.70
2017-12-21T13:24:30.200Z,5.70
2017-12-21T13:26:58.196Z,5.70
2017-12-21T13:29:26.180Z,5.70
2017-12-21T13:31:54.177Z,5.70
2017-12-21T13:34:22.924Z,5.70
2017-12-21T13:36:50.959Z,5.60
2017-12-21T13:39:19.700Z,5.60
2017-12-21T13:41:47.680Z,5.60
2017-12-21T13:44:15.685Z,5.60
2017-12-21T13:46:43.681Z,5.70
2017-12-21T13:49:11.688Z,5.70
2017-12-21T13:51:40.471Z,5.70
2017-12-21T13:54:08.457Z,5.70
2017-12-21T13:56:36.448Z,5.80
2017-12-21T13:59:05.197Z,5.70
2017-12-21T14:01:33.223Z,5.70
2017-12-21T14:04:01.205Z,5.70
2017-12-21T14:06:29.189Z,5.70
2017-12-21T14:08:57.181Z,5.80
2017-12-21T14:11:25.934Z,5.80
2017-12-21T14:13:54.077Z,5.80
2017-12-21T14:16:22.828Z,5.80
2017-12-21T14:18:50.820Z,5.70
2017-12-21T14:21:18.814Z,5.80
2017-12-21T14:23:46.797Z,5.80
2017-12-21T14:26:14.824Z,5.80
2017-12-21T14:28:42.812Z,5.70
2017-12-21T14:31:12.366Z,5.70
2017-12-21T14:33:40.369Z,5.60
2017-12-21T14:36:08.347Z,5.60
2017-12-21T14:38:36.356Z,5.70
2017-12-21T14:41:05.100Z,5.70
2017-12-21T14:43:33.080Z,5.70
2017-12-21T14:46:01.076Z,5.70
2017-12-21T14:48:29.061Z,5.60
2017-12-21T14:50:57.121Z,5.70
2017-12-21T14:53:25.099Z,5.80
2017-12-21T14:55:53.105Z,5.80
2017-12-21T14:58:21.091Z,5.80
2017-12-21T15:00:49.124Z,5.80
2017-12-21T15:03:17.111Z,5.70
2017-12-21T15:05:45.099Z,5.80
2017-12-21T15:08:13.108Z,5.80
2017-12-21T15:10:41.092Z,5.70
2017-12-21T15:13:09.116Z,5.70
2017-12-21T15:15:37.868Z,5.80
2017-12-21T15:18:06.096Z,5.70
2017-12-21T15:20:34.081Z,5.70
2017-12-21T15:23:02.068Z,5.80
2017-12-21T15:25:30.065Z,5.80
2017-12-21T15:27:58.814Z,5.80
2017-12-21T15:30:26.824Z,5.80
2017-12-21T15:32:54.804Z,5.90
2017-12-21T15:35:22.793Z,5.90
2017-12-21T15:37:50.781Z,5.80
2017-12-21T15:40:19.524Z,5.80
2017-12-21T15:42:47.541Z,5.80
2017-12-21T15:45:15.531Z,5.70
2017-12-21T15:47:43.528Z,5.70
2017-12-21T15:50:12.301Z,5.80
2017-12-21T15:52:40.284Z,5.70
2017-12-21T15:55:08.324Z,5.80
2017-12-21T15:57:36.300Z,5.70
2017-12-21T16:00:04.290Z,5.70
2017-12-21T16:02:32.288Z,5.70
2017-12-21T16:05:00.268Z,5.70
2017-12-21T16:07:28.268Z,5.70
2017-12-21T16:09:56.251Z,5.70
2017-12-21T16:12:24.352Z,5.70
2017-12-21T16:14:52.348Z,5.80
2017-12-21T16:17:20.329Z,5.80
2017-12-21T16:19:48.345Z,5.80
2017-12-21T16:22:16.346Z,5.80
2017-12-21T16:24:44.469Z,5.80
2017-12-21T16:27:12.464Z,5.90
2017-12-21T16:29:40.460Z,5.80
2017-12-21T16:32:08.477Z,5.80
2017-12-21T16:34:36.461Z,5.80
2017-12-21T16:37:04.491Z,5.80
2017-12-21T16:39:32.472Z,5.80
2017-12-21T16:42:00.457Z,5.80
2017-12-21T16:44:28.447Z,5.80
2017-12-21T16:46:56.436Z,5.80
2017-12-21T16:49:24.445Z,5.80
2017-12-21T16:51:53.189Z,5.90
2017-12-21T16:54:21.167Z,5.80
2017-12-21T16:56:49.160Z,5.90
2017-12-21T16:59:17.148Z,5.90
2017-12-21T17:01:45.360Z,5.90
2017-12-21T17:04:14.123Z,6.00
2017-12-21T17:06:42.937Z,5.90
2017-12-21T17:09:10.948Z,5.90
2017-12-21T17:11:39.692Z,5.90
2017-12-21T17:14:07.702Z,5.90
2017-12-21T17:16:35.697Z,5.90
2017-12-21T17:19:03.679Z,5.90
2017-12-21T17:21:31.680Z,5.90
2017-12-21T17:24:00.425Z,5.80
2017-12-21T17:26:28.553Z,5.80
2017-12-21T17:28:56.587Z,5.90
2017-12-21T17:31:25.313Z,5.90
2017-12-21T17:33:53.324Z,5.80
2017-12-21T17:36:22.076Z,5.80
2017-12-21T17:38:50.091Z,5.80
2017-12-21T17:41:18.080Z,5.80
2017-12-21T17:43:46.064Z,5.80
2017-12-21T17:46:14.070Z,5.90
2017-12-21T17:48:42.825Z,5.90
2017-12-21T17:51:10.831Z,5.90
2017-12-21T17:53:38.807Z,5.90
2017-12-21T17:56:06.800Z,5.90
2017-12-21T17:58:35.560Z,5.90
2017-12-21T18:01:03.592Z,5.80
2017-12-21T18:03:32.363Z,5.90
2017-12-21T18:06:00.340Z,5.80
2017-12-21T18:08:28.661Z,5.90
2017-12-21T18:10:57.408Z,5.90
2017-12-21T18:13:25.392Z,5.80
2017-12-21T18:15:53.416Z,5.90
2017-12-21T18:18:21.395Z,5.90
2017-12-21T18:20:49.379Z,5.90
2017-12-21T18:23:17.399Z,5.90
2017-12-21T18:25:45.388Z,5.90
2017-12-21T18:28:13.377Z,6.00
2017-12-21T18:30:41.428Z,6.00
2017-12-21T18:33:09.472Z,6.10
2017-12-21T18:35:37.456Z,6.10
2017-12-21T18:38:05.556Z,6.00
2017-12-21T18:40:33.546Z,6.10
2017-12-21T18:43:01.537Z,6.00
2017-12-21T18:45:29.635Z,6.00
2017-12-21T18:47:58.384Z,6.10
2017-12-21T18:50:26.376Z,6.00
2017-12-21T18:52:54.397Z,6.10
2017-12-21T18:55:23.147Z,6.00
2017-12-21T18:57:51.134Z,6.00
2017-12-21T19:00:19.155Z,6.00
2017-12-21T19:02:47.909Z,6.00
2017-12-21T19:05:15.893Z,6.00
2017-12-21T19:07:43.916Z,6.10
2017-12-21T19:10:12.692Z,6.10
2017-12-21T19:12:41.461Z,6.10
2017-12-21T19:15:09.476Z,6.00
2017-12-21T19:17:37.455Z,6.10
2017-12-21T19:20:05.436Z,6.10
2017-12-21T19:22:33.645Z,6.10
2017-12-21T19:25:01.624Z,6.10
2017-12-21T19:27:29.604Z,6.10
2017-12-21T19:29:57.620Z,6.10
2017-12-21T19:32:25.604Z,6.20
2017-12-21T19:34:53.588Z,6.20
2017-12-21T19:37:21.609Z,6.20
2017-12-21T19:39:49.592Z,6.30
2017-12-21T19:42:17.589Z,6.20
2017-12-21T19:44:45.608Z,6.20
2017-12-21T19:47:14.365Z,6.30
2017-12-21T19:49:42.361Z,6.20
2017-12-21T19:52:10.572Z,6.30
2017-12-21T19:54:39.381Z,6.30
2017-12-21T19:57:08.123Z,6.30
2017-12-21T19:59:36.216Z,6.30
2017-12-21T20:02:04.214Z,6.30
2017-12-21T20:04:32.200Z,6.20
2017-12-21T20:07:00.340Z,6.10
2017-12-21T20:09:28.332Z,6.20
2017-12-21T20:11:56.311Z,6.20
2017-12-21T20:14:24.320Z,6.20
2017-12-21T20:16:52.305Z,6.20
2017-12-21T20:19:20.292Z,6.20
2017-12-21T20:21:48.487Z,6.20
2017-12-21T20:24:17.980Z,6.00
2017-12-21T20:26:45.969Z,6.10
2017-12-21T20:29:14.187Z,6.10
2017-12-21T20:31:42.988Z,6.10
2017-12-21T20:34:11.005Z,6.00
2017-12-21T20:36:39.047Z,6.10
2017-12-21T20:39:07.032Z,6.20
2017-12-21T20:41:35.784Z,6.10
2017-12-21T20:44:03.809Z,6.10
2017-12-21T20:46:31.788Z,6.10
2017-12-21T20:48:59.772Z,6.10
2017-12-21T20:51:27.804Z,6.10
2017-12-21T20:53:55.799Z,6.10
2017-12-21T20:56:23.781Z,6.10
2017-12-21T20:58:51.803Z,6.20
2017-12-21T21:01:19.796Z,6.20
2017-12-21T21:03:47.788Z,6.20
2017-12-21T21:06:17.307Z,6.20
2017-12-21T21:08:46.556Z,6.20
2017-12-21T21:11:14.547Z,6.20
2017-12-21T21:13:42.592Z,6.30
2017-12-21T21:16:11.368Z,6.40
2017-12-21T21:18:39.348Z,6.40
2017-12-21T21:21:08.359Z,6.40
2017-12-21T21:23:36.336Z,6.40
2017-12-21T21:26:04.316Z,6.40
2017-12-21T21:28:32.320Z,6.40
2017-12-21T21:31:01.068Z,6.40
2017-12-21T21:33:29.052Z,6.30
2017-12-21T21:35:57.072Z,6.40
2017-12-21T21:38:25.057Z,6.50
2017-12-21T21:40:53.041Z,6.40
2017-12-21T21:43:21.152Z,6.40
2017-12-21T21:45:49.135Z,6.40
2017-12-21T21:48:17.121Z,6.40
2017-12-21T21:50:45.144Z,6.50
2017-12-21T21:53:13.135Z,6.40
2017-12-21T21:55:41.132Z,6.50
2017-12-21T21:58:09.135Z,6.40
2017-12-21T22:00:37.883Z,6.40
2017-12-21T22:03:05.888Z,6.40
2017-12-21T22:05:33.940Z,6.50
2017-12-21T22:08:01.931Z,6.50
2017-12-21T22:10:29.921Z,6.60
2017-12-21T22:12:57.925Z,6.50
2017-12-21T22:15:25.909Z,6.50
2017-12-21T22:17:53.909Z,6.40
2017-12-21T22:20:22.912Z,6.40
2017-12-21T22:22:50.904Z,6.40
2017-12-21T22:25:19.659Z,6.50
2017-12-21T22:27:47.687Z,6.40
2017-12-21T22:30:16.444Z,6.40
2017-12-21T22:32:45.207Z,6.40
2017-12-21T22:35:13.348Z,6.40
2017-12-21T22:37:41.336Z,6.40
2017-12-21T22:40:09.324Z,6.40
2017-12-21T22:42:38.128Z,6.50
2017-12-21T22:45:06.887Z,6.50
2017-12-21T22:47:34.900Z,6.50
2017-12-21T22:50:02.932Z,6.50
2017-12-21T22:52:30.929Z,6.50
2017-12-21T22:54:58.917Z,6.50
2017-12-21T22:57:26.946Z,6.50
2017-12-21T22:59:54.919Z,6.40
2017-12-21T23:02:22.904Z,6.50
2017-12-21T23:04:50.920Z,6.50
2017-12-21T23:07:18.904Z,6.50
2017-12-21T23:09:47.040Z,6.50
2017-12-21T23:12:16.680Z,6.40
2017-12-21T23:14:44.671Z,6.40
2017-12-21T23:17:13.432Z,6.40
2017-12-21T23:19:41.452Z,6.40
2017-12-21T23:22:10.204Z,6.50
2017-12-21T23:24:38.188Z,6.50
2017-12-21T23:27:06.211Z,6.60
2017-12-21T23:29:34.959Z,6.50
2017-12-21T23:32:02.944Z,6.40
2017-12-21T23:34:30.953Z,6.40
2017-12-21T23:36:58.944Z,6.40
2017-12-21T23:39:27.304Z,6.40
2017-12-21T23:41:55.319Z,6.40
2017-12-21T23:44:23.312Z,6.40
2017-12-21T23:46:51.297Z,6.40
2017-12-21T23:49:20.068Z,6.40
2017-12-21T23:51:48.055Z,6.40
2017-12-21T23:54:16.052Z,6.50
2017-12-21T23:56:44.085Z,6.40
2017-12-21T23:59:12.076Z,6.50
